createdAt,value
2018-07-05T00:05:41.618Z,17.40
2018-07-05T00:15:42.863Z,17.30
2018-07-05T00:35:54.577Z,17.30
2018-07-05T00:45:55.822Z,17.10
2018-07-05T00:55:57.096Z,17.10
2018-07-05T01:05:58.346Z,17.00
2018-07-05T01:15:59.632Z,16.90
2018-07-05T01:26:00.906Z,16.80
2018-07-05T01:36:02.183Z,16.70
2018-07-05T01:46:04.226Z,16.50
2018-07-05T01:56:05.504Z,16.50
2018-07-05T02:06:06.765Z,16.40
2018-07-05T02:16:08.021Z,16.40
2018-07-05T02:26:09.287Z,16.40
2018-07-05T02:36:10.550Z,16.40
2018-07-05T02:46:11.812Z,16.40
2018-07-05T02:56:13.091Z,16.30
2018-07-05T03:06:14.356Z,16.40
2018-07-05T03:16:15.626Z,16.20
2018-07-05T03:26:16.907Z,16.10
2018-07-05T03:46:27.904Z,16.10
2018-07-05T03:56:29.151Z,16.10
2018-07-05T04:06:30.417Z,16.20
2018-07-05T04:16:32.455Z,16.40
2018-07-05T04:26:33.716Z,16.40
2018-07-05T04:46:42.346Z,16.90
2018-07-05T04:56:43.586Z,17.30
2018-07-05T05:06:44.835Z,17.60
2018-07-05T05:16:46.072Z,18.00
2018-07-05T05:26:47.330Z,18.40
2018-07-05T05:36:48.580Z,18.90
2018-07-05T05:46:49.818Z,19.50
2018-07-05T05:56:51.862Z,20.40
2018-07-05T06:06:53.125Z,20.40
2018-07-05T06:16:55.151Z,21.10
2018-07-05T06:26:57.173Z,21.80
2018-07-05T06:37:01.463Z,21.80
2018-07-05T06:47:02.707Z,23.80
2018-07-05T06:57:03.958Z,26.40
2018-07-05T07:07:05.217Z,30.10
2018-07-05T07:17:07.257Z,32.20
2018-07-05T07:27:08.518Z,32.10
2018-07-05T07:37:10.700Z,35.10
2018-07-05T07:47:11.950Z,35.00
2018-07-05T07:57:13.186Z,37.20
2018-07-05T08:07:14.423Z,39.40
2018-07-05T08:17:16.449Z,41.20
2018-07-05T08:27:18.461Z,42.30
2018-07-05T08:37:20.471Z,40.20
2018-07-05T08:47:21.725Z,40.20
2018-07-05T08:57:22.978Z,41.90
2018-07-05T09:07:24.227Z,42.10
2018-07-05T09:17:25.504Z,40.20
2018-07-05T09:27:26.772Z,40.00
2018-07-05T09:37:28.036Z,39.70
2018-07-05T09:47:29.295Z,40.50
2018-07-05T09:57:30.566Z,39.60
2018-07-05T10:17:43.039Z,39.00
2018-07-05T10:27:44.322Z,37.10
2018-07-05T10:37:45.576Z,37.60
2018-07-05T10:47:46.847Z,34.60
2018-07-05T10:57:48.132Z,33.80
2018-07-05T11:17:57.494Z,32.80
2018-07-05T11:27:58.761Z,32.50
2018-07-05T11:38:00.033Z,32.30
2018-07-05T11:48:01.329Z,31.80
2018-07-05T11:58:02.571Z,31.10
2018-07-05T12:08:04.632Z,32.10
2018-07-05T12:28:12.816Z,31.40
2018-07-05T12:38:14.159Z,31.40
2018-07-05T12:48:15.401Z,30.90
2018-07-05T12:58:16.693Z,30.80
2018-07-05T13:08:18.797Z,30.80
2018-07-05T13:18:20.922Z,30.50
2018-07-05T13:28:22.189Z,30.40
2018-07-05T13:38:23.458Z,30.40
2018-07-05T13:48:24.736Z,30.50
2018-07-05T13:58:25.998Z,30.80
2018-07-05T14:08:28.015Z,29.90
2018-07-05T14:18:30.039Z,29.00
2018-07-05T14:28:31.314Z,28.90
2018-07-05T14:38:32.567Z,28.70
2018-07-05T14:48:33.806Z,28.40
2018-07-05T14:58:35.825Z,26.90
2018-07-05T15:08:37.827Z,25.80
2018-07-05T15:18:39.064Z,25.70
2018-07-05T15:28:40.303Z,25.10
2018-07-05T15:38:45.487Z,24.80
2018-07-05T15:48:46.746Z,24.10
2018-07-05T15:58:48.163Z,23.50
2018-07-05T16:08:49.402Z,23.60
2018-07-05T16:18:51.419Z,22.90
2018-07-05T16:28:52.710Z,22.80
2018-07-05T16:38:54.729Z,21.20
2018-07-05T16:48:55.989Z,21.20
2018-07-05T16:58:57.263Z,20.80
2018-07-05T17:08:58.543Z,20.00
2018-07-05T17:18:59.925Z,19.70
2018-07-05T17:29:01.927Z,19.00
2018-07-05T17:39:03.957Z,18.80
2018-07-05T17:49:05.200Z,18.80
2018-07-05T17:59:06.494Z,18.80
2018-07-05T18:09:07.778Z,18.80
2018-07-05T18:19:09.224Z,18.70
2018-07-05T18:29:10.973Z,18.70
2018-07-05T18:39:12.554Z,18.90
2018-07-05T18:49:14.056Z,18.80
2018-07-05T18:59:15.355Z,18.60
2018-07-05T19:09:16.631Z,18.60
2018-07-05T19:19:18.696Z,18.50
2018-07-05T19:29:19.962Z,18.50
2018-07-05T19:39:21.246Z,18.30
2018-07-05T19:49:22.512Z,18.30
2018-07-05T19:59:23.772Z,18.10
2018-07-05T20:09:25.004Z,18.30
2018-07-05T20:19:27.094Z,18.20
2018-07-05T20:29:28.374Z,18.20
2018-07-05T20:39:29.643Z,18.20
2018-07-05T20:49:30.905Z,18.10
2018-07-05T20:59:32.946Z,18.00
2018-07-05T21:09:34.212Z,17.90
2018-07-05T21:19:36.252Z,18.00
2018-07-05T21:29:37.519Z,17.90
2018-07-05T21:39:38.774Z,18.00
2018-07-05T21:49:40.030Z,18.00
2018-07-05T21:59:41.305Z,17.90
2018-07-05T22:09:46.676Z,17.90
2018-07-05T22:19:47.937Z,17.90
2018-07-05T22:29:49.198Z,17.90
2018-07-05T22:39:51.372Z,17.90
2018-07-05T22:49:52.638Z,17.90
2018-07-05T22:59:53.922Z,17.80
2018-07-05T23:09:55.187Z,17.70
2018-07-05T23:19:56.451Z,17.70
2018-07-05T23:29:57.706Z,17.60
2018-07-05T23:39:58.958Z,17.70
2018-07-05T23:50:00.233Z,17.50
